Time;durP1;ratioP1;P1;durP2;ratioP2;P2;SDS_P1;SDS_P2;PMS_P1;PMS_P2;Temp;Humidity;BMP_temperature;BMP_pressure;BME280_temperature;BME280_humidity;BME280_pressure;Samples;Min_cycle;Max_cycle;Signal;HPM_P1;HPM_P2
2023/11/26 00:02:25;;;;;;;3.42;2.88;;;8.20;94.80;;;;;;5021905;28;20243;-44
2023/11/26 00:04:53;;;;;;;1.58;1.00;;;8.10;94.20;;;;;;5019415;28;20286;-44
2023/11/26 00:07:21;;;;;;;2.00;1.33;;;8.20;94.20;;;;;;5010349;28;20706;-45
2023/11/26 00:09:49;;;;;;;2.80;1.27;;;8.20;94.30;;;;;;5023162;28;20228;-45
2023/11/26 00:12:17;;;;;;;1.88;1.00;;;8.20;94.20;;;;;;5012695;28;20240;-45
2023/11/26 00:14:45;;;;;;;3.03;1.80;;;8.10;94.20;;;;;;5015153;28;20705;-43
2023/11/26 00:17:13;;;;;;;4.43;1.05;;;8.10;94.20;;;;;;5016630;28;20279;-45
2023/11/26 00:19:43;;;;;;;2.85;2.08;;;8.10;94.20;;;;;;5020287;28;20225;-43
2023/11/26 00:22:11;;;;;;;4.57;1.20;;;8.10;94.20;;;;;;5029057;28;20194;-46
2023/11/26 00:24:39;;;;;;;2.55;1.35;;;8.10;94.20;;;;;;5029671;28;20303;-46
2023/11/26 00:27:07;;;;;;;2.95;1.30;;;8.20;94.20;;;;;;5016123;28;20232;-44
2023/11/26 00:29:40;;;;;;;2.08;1.05;;;8.10;94.20;;;;;;5029555;28;20213;-45
2023/11/26 00:32:08;;;;;;;1.63;1.27;;;8.20;94.20;;;;;;5028364;28;22451;-45
2023/11/26 00:34:38;;;;;;;3.58;1.02;;;8.10;94.20;;;;;;5021329;28;20227;-45
2023/11/26 00:37:07;;;;;;;2.10;1.20;;;8.10;94.20;;;;;;5019065;28;20683;-45
2023/11/26 00:39:35;;;;;;;2.55;1.33;;;8.20;94.20;;;;;;5007807;28;20245;-45
2023/11/26 00:42:03;;;;;;;2.78;1.30;;;8.10;94.20;;;;;;5020011;28;20230;-44
2023/11/26 00:44:31;;;;;;;3.38;1.10;;;8.10;94.20;;;;;;5031243;28;20303;-44
2023/11/26 00:46:59;;;;;;;3.17;1.42;;;8.20;94.20;;;;;;5027717;28;20211;-44
2023/11/26 00:49:28;;;;;;;2.50;0.95;;;8.10;94.20;;;;;;5030925;28;20213;-44
2023/11/26 00:51:56;;;;;;;2.72;1.50;;;8.10;94.20;;;;;;5003321;28;20198;-46
2023/11/26 00:54:26;;;;;;;2.80;1.05;;;8.10;94.20;;;;;;5024818;28;20224;-44
2023/11/26 00:56:54;;;;;;;3.05;1.05;;;8.10;94.20;;;;;;5000868;28;20218;-45
2023/11/26 00:59:22;;;;;;;5.10;1.40;;;8.10;94.20;;;;;;5030683;28;20244;-44
2023/11/26 01:01:49;;;;;;;2.40;1.10;;;8.10;94.20;;;;;;5005742;28;20193;-44
2023/11/26 01:04:17;;;;;;;2.13;1.42;;;8.10;94.20;;;;;;5006902;28;20212;-46
2023/11/26 01:06:46;;;;;;;5.57;1.38;;;8.10;94.30;;;;;;5010932;28;20217;-46
2023/11/26 01:09:14;;;;;;;2.65;1.40;;;8.10;94.30;;;;;;5021327;28;20619;-45
2023/11/26 01:11:44;;;;;;;3.13;2.05;;;8.10;94.20;;;;;;5021595;28;20570;-44
2023/11/26 01:14:13;;;;;;;2.10;1.13;;;8.10;94.30;;;;;;5012353;28;20222;-45
2023/11/26 01:16:41;;;;;;;2.90;1.00;;;8.10;94.20;;;;;;5011889;28;20255;-48
2023/11/26 01:19:09;;;;;;;1.65;0.98;;;8.10;94.20;;;;;;5028302;28;20232;-48
2023/11/26 01:21:38;;;;;;;2.53;1.60;;;8.10;94.20;;;;;;5020578;28;20211;-47
2023/11/26 01:24:08;;;;;;;2.72;1.40;;;8.10;94.70;;;;;;5021589;28;20308;-46
2023/11/26 01:26:37;;;;;;;2.25;1.55;;;8.10;94.20;;;;;;5013449;28;20208;-45
2023/11/26 01:29:06;;;;;;;2.33;1.35;;;8.10;94.20;;;;;;5026117;28;20222;-44
2023/11/26 01:31:34;;;;;;;1.95;1.20;;;8.10;94.20;;;;;;5024874;28;20233;-45
2023/11/26 01:34:03;;;;;;;2.58;1.40;;;8.10;94.20;;;;;;5014791;28;20516;-46
2023/11/26 01:36:31;;;;;;;4.93;1.38;;;8.10;94.20;;;;;;5025066;28;20193;-45
2023/11/26 01:38:59;;;;;;;2.63;1.80;;;8.10;94.30;;;;;;5026328;28;20279;-44
2023/11/26 01:41:27;;;;;;;2.70;1.60;;;8.10;94.30;;;;;;4997054;28;20214;-43
2023/11/26 01:43:55;;;;;;;3.38;1.67;;;8.10;94.30;;;;;;5011692;28;20216;-46
2023/11/26 01:46:27;;;;;;;2.53;1.50;;;8.10;94.20;;;;;;5030687;28;20196;-45
2023/11/26 01:48:55;;;;;;;2.85;1.40;;;8.10;94.30;;;;;;4988770;28;20230;-44
2023/11/26 01:51:25;;;;;;;2.85;1.30;;;8.10;94.30;;;;;;4986170;28;20679;-44
2023/11/26 01:53:53;;;;;;;2.22;2.00;;;8.10;94.30;;;;;;4992287;28;20272;-45
2023/11/26 01:56:22;;;;;;;3.28;1.23;;;8.10;94.20;;;;;;5001679;28;20197;-43
2023/11/26 01:58:51;;;;;;;3.05;1.40;;;8.10;94.20;;;;;;4989728;28;20243;-46
2023/11/26 02:01:22;;;;;;;2.88;1.80;;;8.10;94.20;;;;;;4997143;28;20221;-43
2023/11/26 02:03:51;;;;;;;3.67;2.10;;;8.10;94.20;;;;;;5006049;28;20222;-47
2023/11/26 02:06:20;;;;;;;3.25;1.40;;;8.10;94.20;;;;;;4994108;28;20215;-43
2023/11/26 02:08:48;;;;;;;1.90;1.55;;;8.10;94.20;;;;;;4992559;28;20273;-45
2023/11/26 02:11:16;;;;;;;4.78;1.80;;;8.10;94.20;;;;;;4993010;28;20581;-45
2023/11/26 02:13:45;;;;;;;1.63;1.10;;;8.10;94.20;;;;;;5010343;28;20222;-46
2023/11/26 02:16:14;;;;;;;2.95;1.85;;;8.10;94.20;;;;;;5010264;28;20557;-43
2023/11/26 02:18:43;;;;;;;2.55;1.30;;;8.10;94.20;;;;;;5004120;28;20707;-46
2023/11/26 02:21:12;;;;;;;2.60;1.90;;;8.10;94.20;;;;;;5002434;28;20227;-47
2023/11/26 02:23:42;;;;;;;2.42;1.80;;;8.10;94.70;;;;;;5008625;28;20244;-44
2023/11/26 02:26:12;;;;;;;3.05;1.70;;;8.00;94.20;;;;;;4991400;28;20200;-44
2023/11/26 02:28:42;;;;;;;2.55;1.60;;;8.10;94.20;;;;;;4999125;28;20233;-44
2023/11/26 02:31:11;;;;;;;2.63;1.58;;;8.10;94.20;;;;;;5002289;28;20193;-46
2023/11/26 02:33:40;;;;;;;4.45;2.00;;;8.10;94.20;;;;;;4994552;28;20222;-44
2023/11/26 02:36:25;;;;;;;2.10;1.70;;;8.10;94.30;;;;;;5003104;28;20200;-45
2023/11/26 02:38:55;;;;;;;2.72;1.35;;;8.10;94.30;;;;;;5005885;28;20226;-44
2023/11/26 02:41:25;;;;;;;2.97;1.70;;;8.10;94.20;;;;;;4991877;28;20571;-46
2023/11/26 02:43:53;;;;;;;3.00;1.48;;;8.10;94.20;;;;;;5009092;28;20231;-48
2023/11/26 02:46:22;;;;;;;2.58;1.42;;;8.10;94.20;;;;;;5010205;28;20190;-44
2023/11/26 02:48:50;;;;;;;1.98;1.10;;;8.10;94.20;;;;;;4999166;28;20224;-44
2023/11/26 02:51:19;;;;;;;3.70;2.22;;;8.10;94.20;;;;;;4999772;28;20587;-44
2023/11/26 02:53:47;;;;;;;2.88;1.63;;;8.10;94.20;;;;;;5008371;28;20222;-46
2023/11/26 02:56:17;;;;;;;2.10;1.30;;;8.10;94.20;;;;;;4999283;28;20216;-44
2023/11/26 02:58:46;;;;;;;3.78;2.30;;;8.10;94.20;;;;;;5008057;28;20229;-44
2023/11/26 03:01:18;;;;;;;3.17;2.88;;;8.10;94.20;;;;;;5001370;28;20218;-44
2023/11/26 03:03:47;;;;;;;3.83;2.40;;;8.10;94.20;;;;;;4998217;28;20276;-45
2023/11/26 03:06:17;;;;;;;2.67;1.67;;;8.00;94.30;;;;;;5008701;28;20208;-45
2023/11/26 03:08:45;;;;;;;2.60;1.80;;;8.00;94.20;;;;;;5008113;28;20284;-44
2023/11/26 03:14:00;;;;;;;3.95;1.70;;;8.00;94.30;;;;;;5008866;28;20221;-45
2023/11/26 03:16:28;;;;;;;2.92;1.58;;;8.00;94.20;;;;;;5010108;28;20194;-45
2023/11/26 03:18:57;;;;;;;2.17;1.20;;;8.00;94.20;;;;;;5006270;28;20271;-49
2023/11/26 03:21:28;;;;;;;3.17;1.65;;;8.10;94.20;;;;;;4999629;28;20777;-43
2023/11/26 03:23:57;;;;;;;4.70;1.73;;;8.00;94.20;;;;;;5007176;28;20229;-46
2023/11/26 03:26:26;;;;;;;4.75;1.48;;;8.00;94.20;;;;;;5000319;28;20197;-46
2023/11/26 03:28:55;;;;;;;2.53;1.30;;;8.00;94.20;;;;;;5001645;28;20225;-46
2023/11/26 03:31:26;;;;;;;2.03;1.42;;;8.00;94.20;;;;;;5003557;28;20193;-44
2023/11/26 03:33:54;;;;;;;2.65;1.25;;;8.00;94.20;;;;;;5008296;28;20789;-47
2023/11/26 03:36:22;;;;;;;3.75;1.60;;;8.10;94.20;;;;;;5005827;28;20204;-45
2023/11/26 03:38:50;;;;;;;2.38;1.45;;;8.00;94.20;;;;;;5005687;28;20322;-46
2023/11/26 03:41:19;;;;;;;2.00;1.30;;;8.00;94.20;;;;;;4987516;28;20578;-45
2023/11/26 03:43:47;;;;;;;3.05;1.45;;;8.00;94.10;;;;;;5005451;28;20221;-44
2023/11/26 03:46:16;;;;;;;2.80;1.75;;;8.00;94.20;;;;;;5002804;28;20200;-45
2023/11/26 03:48:49;;;;;;;4.45;1.58;;;8.00;94.10;;;;;;5008358;28;20234;-45
2023/11/26 03:51:20;;;;;;;4.20;2.03;;;8.00;94.10;;;;;;4997533;28;20301;-46
2023/11/26 03:53:48;;;;;;;2.85;1.73;;;8.00;94.20;;;;;;5010668;28;20272;-45
2023/11/26 03:56:16;;;;;;;4.10;1.65;;;8.00;94.10;;;;;;4997232;28;20190;-44
2023/11/26 03:58:45;;;;;;;3.22;2.30;;;8.00;94.10;;;;;;5012539;28;20227;-45
2023/11/26 04:01:13;;;;;;;3.38;1.60;;;8.00;94.10;;;;;;5012647;28;20725;-44
2023/11/26 04:03:41;;;;;;;3.35;1.92;;;8.00;94.10;;;;;;5015867;28;20220;-45
2023/11/26 04:06:12;;;;;;;2.55;1.88;;;8.00;94.10;;;;;;5023025;28;20291;-45
2023/11/26 04:08:40;;;;;;;4.25;2.22;;;8.00;94.10;;;;;;5032513;28;20690;-44
2023/11/26 04:11:08;;;;;;;2.08;1.85;;;8.00;94.10;;;;;;5020779;28;20277;-44
2023/11/26 04:13:37;;;;;;;3.10;1.80;;;8.00;94.10;;;;;;5025612;28;20313;-45
2023/11/26 04:16:07;;;;;;;3.20;2.03;;;8.00;94.10;;;;;;5027833;28;20204;-44
2023/11/26 04:18:35;;;;;;;1.92;1.42;;;8.00;94.10;;;;;;5024280;28;20234;-45
2023/11/26 04:21:07;;;;;;;3.47;1.90;;;8.00;94.10;;;;;;5027463;28;20213;-45
2023/11/26 04:23:36;;;;;;;3.20;1.90;;;8.00;94.10;;;;;;5024293;28;20213;-46
2023/11/26 04:26:06;;;;;;;2.13;1.42;;;8.00;94.10;;;;;;5007843;28;20619;-47
2023/11/26 04:28:35;;;;;;;2.50;1.88;;;8.00;94.10;;;;;;5030280;28;20310;-44
2023/11/26 04:31:03;;;;;;;2.28;1.65;;;8.00;94.10;;;;;;5027102;28;20606;-47
2023/11/26 04:33:31;;;;;;;3.10;2.40;;;8.00;94.60;;;;;;5024830;28;20644;-45
2023/11/26 04:35:59;;;;;;;3.00;2.00;;;8.00;94.10;;;;;;5027503;28;20611;-46
2023/11/26 04:38:27;;;;;;;2.53;1.70;;;8.00;94.10;;;;;;5032210;28;20209;-45
2023/11/26 04:40:57;;;;;;;1.98;1.77;;;8.00;94.10;;;;;;5013274;28;20216;-45
2023/11/26 04:43:26;;;;;;;3.95;1.98;;;8.00;94.10;;;;;;5029876;28;20324;-46
2023/11/26 04:45:54;;;;;;;3.30;1.48;;;8.00;94.10;;;;;;5032826;28;20285;-45
2023/11/26 04:48:22;;;;;;;2.13;1.50;;;8.00;94.10;;;;;;5023531;28;20702;-45
2023/11/26 04:50:50;;;;;;;3.00;2.08;;;8.00;94.10;;;;;;5028600;28;20247;-44
2023/11/26 04:53:20;;;;;;;3.67;1.60;;;8.00;94.10;;;;;;5031789;28;20219;-44
2023/11/26 04:55:48;;;;;;;3.38;2.03;;;8.00;94.10;;;;;;5023853;28;20190;-45
2023/11/26 04:58:18;;;;;;;2.53;1.40;;;8.00;94.10;;;;;;5023362;28;20225;-44
2023/11/26 05:00:46;;;;;;;3.03;1.48;;;8.00;94.10;;;;;;5030930;28;20258;-47
2023/11/26 05:03:14;;;;;;;1.73;1.27;;;8.00;94.10;;;;;;5031913;28;20253;-43
2023/11/26 05:05:42;;;;;;;1.88;1.20;;;8.00;94.10;;;;;;5015186;28;20224;-44
2023/11/26 05:08:11;;;;;;;3.85;1.88;;;8.00;94.10;;;;;;5011470;28;20800;-45
2023/11/26 05:10:39;;;;;;;3.78;1.63;;;8.00;94.20;;;;;;5004751;28;20198;-43
2023/11/26 05:13:06;;;;;;;3.38;2.05;;;8.00;94.20;;;;;;5009470;28;20223;-43
2023/11/26 05:15:36;;;;;;;2.65;1.75;;;8.00;94.10;;;;;;5012440;28;20197;-44
2023/11/26 05:18:05;;;;;;;3.35;1.55;;;8.00;94.20;;;;;;5009862;28;20724;-45
2023/11/26 05:20:33;;;;;;;4.55;2.45;;;8.00;94.20;;;;;;5011790;28;20204;-44
2023/11/26 05:23:01;;;;;;;2.53;1.52;;;7.90;94.10;;;;;;5009970;28;20221;-46
2023/11/26 05:25:30;;;;;;;2.20;1.45;;;8.00;94.20;;;;;;5003968;28;20203;-45
2023/11/26 05:27:58;;;;;;;3.08;1.70;;;7.90;94.10;;;;;;5007034;28;20237;-46
2023/11/26 05:30:26;;;;;;;1.67;1.30;;;7.90;94.10;;;;;;5010055;28;20657;-46
2023/11/26 05:32:57;;;;;;;2.22;1.42;;;8.00;94.20;;;;;;5008034;28;20321;-47
2023/11/26 05:35:27;;;;;;;2.75;1.65;;;8.00;94.20;;;;;;5010456;28;20245;-44
2023/11/26 05:37:56;;;;;;;1.70;1.30;;;8.00;94.10;;;;;;5010393;28;20502;-44
2023/11/26 05:40:24;;;;;;;1.80;1.50;;;8.00;94.10;;;;;;5010187;28;20221;-45
2023/11/26 05:42:52;;;;;;;2.38;1.92;;;8.00;94.10;;;;;;5011462;28;20579;-45
2023/11/26 05:45:20;;;;;;;2.60;1.70;;;8.00;94.10;;;;;;5004204;28;20667;-46
2023/11/26 05:47:49;;;;;;;3.13;1.85;;;8.00;94.10;;;;;;5011041;28;20622;-47
2023/11/26 05:50:19;;;;;;;1.90;1.70;;;8.00;94.10;;;;;;5003156;28;20542;-45
2023/11/26 05:52:47;;;;;;;5.07;2.20;;;8.00;94.10;;;;;;5011139;28;20735;-45
2023/11/26 05:55:20;;;;;;;2.20;1.45;;;7.90;94.10;;;;;;5008800;28;20200;-46
2023/11/26 05:57:48;;;;;;;3.95;2.60;;;7.90;94.10;;;;;;5017284;28;20224;-47
2023/11/26 06:00:16;;;;;;;2.78;1.60;;;7.90;94.10;;;;;;5011290;28;20205;-47
2023/11/26 06:02:45;;;;;;;3.50;1.80;;;7.90;94.10;;;;;;5010835;28;20216;-45
2023/11/26 06:05:13;;;;;;;2.80;2.00;;;7.90;94.10;;;;;;5007312;28;20640;-45
2023/11/26 06:07:42;;;;;;;4.10;3.20;;;7.90;94.10;;;;;;5011337;28;20225;-46
2023/11/26 06:10:11;;;;;;;2.72;1.92;;;7.90;94.10;;;;;;5008527;28;20210;-46
2023/11/26 06:12:39;;;;;;;2.78;1.88;;;7.90;94.20;;;;;;5005090;28;20277;-48
2023/11/26 06:15:08;;;;;;;6.00;2.65;;;7.90;94.20;;;;;;5011765;28;20197;-45
2023/11/26 06:17:37;;;;;;;6.22;3.30;;;7.90;94.20;;;;;;5017874;28;20281;-46
2023/11/26 06:20:08;;;;;;;4.47;2.65;;;7.90;94.20;;;;;;5005789;28;20214;-46
2023/11/26 06:22:36;;;;;;;2.60;1.90;;;7.90;94.20;;;;;;5010516;28;20224;-45
2023/11/26 06:25:09;;;;;;;3.40;2.50;;;7.90;94.20;;;;;;4987379;28;20218;-48
2023/11/26 06:27:37;;;;;;;5.10;2.10;;;7.90;94.20;;;;;;4983861;28;20277;-47
2023/11/26 06:30:07;;;;;;;3.03;1.90;;;7.90;94.20;;;;;;5008827;28;20296;-48
2023/11/26 06:32:35;;;;;;;2.85;2.08;;;7.90;94.20;;;;;;5009232;28;20197;-46
2023/11/26 06:35:03;;;;;;;2.63;1.92;;;7.90;94.10;;;;;;5002775;28;20233;-46
2023/11/26 06:37:31;;;;;;;3.13;1.60;;;7.90;94.10;;;;;;5016155;28;20217;-46
2023/11/26 06:39:59;;;;;;;3.80;2.60;;;7.90;94.10;;;;;;5007845;28;20219;-48
2023/11/26 06:42:29;;;;;;;2.10;1.67;;;7.90;94.10;;;;;;5010815;28;20210;-45
2023/11/26 06:44:57;;;;;;;3.33;2.10;;;7.90;94.10;;;;;;5010615;28;20234;-45
2023/11/26 06:47:27;;;;;;;2.58;1.50;;;7.90;94.10;;;;;;5011016;28;20202;-44
2023/11/26 06:49:57;;;;;;;2.58;2.10;;;7.90;94.10;;;;;;5009479;28;20260;-46
2023/11/26 06:52:25;;;;;;;3.47;1.88;;;7.90;94.20;;;;;;5010588;28;20681;-47
2023/11/26 06:54:53;;;;;;;4.85;2.30;;;7.90;94.20;;;;;;5009747;28;20707;-49
2023/11/26 06:57:21;;;;;;;3.85;2.22;;;7.90;94.20;;;;;;5010533;28;20279;-45
2023/11/26 06:59:51;;;;;;;4.00;2.05;;;7.90;94.10;;;;;;5010579;28;20308;-47
2023/11/26 07:02:19;;;;;;;3.08;2.42;;;7.90;94.10;;;;;;5010112;28;20681;-44
2023/11/26 07:04:47;;;;;;;4.25;3.28;;;7.90;94.20;;;;;;5010520;28;20221;-44
2023/11/26 07:07:19;;;;;;;3.47;2.47;;;7.90;94.20;;;;;;5002289;28;20269;-46
2023/11/26 07:09:47;;;;;;;2.53;1.73;;;7.90;94.10;;;;;;5010458;28;20214;-46
2023/11/26 07:12:15;;;;;;;3.03;2.05;;;7.90;94.20;;;;;;5008559;28;20201;-47
2023/11/26 07:14:44;;;;;;;4.22;2.95;;;7.90;94.20;;;;;;5010494;28;20220;-44
2023/11/26 07:17:14;;;;;;;4.93;2.80;;;7.90;94.20;;;;;;5010855;28;20718;-44
2023/11/26 07:19:42;;;;;;;3.20;2.10;;;7.90;94.20;;;;;;5008425;28;20253;-44
2023/11/26 07:22:11;;;;;;;3.22;2.20;;;7.90;94.20;;;;;;5010693;28;20205;-44
2023/11/26 07:24:41;;;;;;;4.65;2.35;;;7.90;94.20;;;;;;5008550;28;20223;-45
2023/11/26 07:27:09;;;;;;;3.40;2.40;;;7.90;94.20;;;;;;5006472;28;20210;-45
2023/11/26 07:29:37;;;;;;;5.40;2.10;;;7.90;94.20;;;;;;5008462;28;20283;-44
2023/11/26 07:32:06;;;;;;;4.75;2.75;;;7.90;94.20;;;;;;5008414;28;20276;-46
2023/11/26 07:34:35;;;;;;;4.75;2.75;;;7.90;94.20;;;;;;5006308;28;20253;-45
2023/11/26 07:37:03;;;;;;;5.10;3.35;;;7.90;94.20;;;;;;5007054;28;20275;-43
2023/11/26 07:39:33;;;;;;;2.80;2.47;;;7.80;94.20;;;;;;5009721;28;20237;-44
2023/11/26 07:42:01;;;;;;;3.30;2.10;;;7.90;94.20;;;;;;5008218;28;20197;-44
2023/11/26 07:44:29;;;;;;;3.22;2.65;;;7.80;94.30;;;;;;5009884;28;20716;-45
2023/11/26 07:46:58;;;;;;;4.40;3.22;;;7.80;94.30;;;;;;5011643;28;20226;-45
2023/11/26 07:49:26;;;;;;;4.65;2.83;;;7.80;94.30;;;;;;5004467;28;20795;-45
2023/11/26 07:51:56;;;;;;;2.63;2.15;;;7.90;94.40;;;;;;5010543;28;20197;-47
2023/11/26 07:54:24;;;;;;;4.97;3.00;;;7.90;94.30;;;;;;5013486;28;20691;-47
2023/11/26 07:56:56;;;;;;;3.60;2.22;;;7.90;94.20;;;;;;5008191;28;20224;-45
2023/11/26 07:59:24;;;;;;;4.47;2.45;;;7.90;94.30;;;;;;5009945;28;20536;-44
2023/11/26 08:01:52;;;;;;;3.08;2.40;;;7.90;94.30;;;;;;5017285;28;20244;-45
2023/11/26 08:04:21;;;;;;;3.22;2.17;;;7.80;94.30;;;;;;5004627;28;20229;-47
2023/11/26 08:06:52;;;;;;;3.25;2.00;;;7.90;94.30;;;;;;5009330;28;20223;-44
2023/11/26 08:09:21;;;;;;;4.97;3.25;;;7.90;94.30;;;;;;5009069;28;20275;-45
2023/11/26 08:11:52;;;;;;;5.68;3.20;;;7.90;94.40;;;;;;5000988;28;20209;-45
2023/11/26 08:14:20;;;;;;;3.58;2.60;;;7.80;94.40;;;;;;5010033;28;20616;-45
2023/11/26 08:16:48;;;;;;;5.00;4.07;;;7.80;94.40;;;;;;5010670;28;20260;-45
2023/11/26 08:19:18;;;;;;;3.03;2.33;;;7.80;94.40;;;;;;5002155;28;20222;-47
2023/11/26 08:21:47;;;;;;;3.80;2.33;;;7.80;94.30;;;;;;5009901;28;20299;-45
2023/11/26 08:24:18;;;;;;;5.07;3.42;;;7.80;94.30;;;;;;5006759;28;20322;-47
2023/11/26 08:26:49;;;;;;;4.43;3.30;;;7.80;94.40;;;;;;4999688;28;20198;-46
2023/11/26 08:29:18;;;;;;;5.25;3.63;;;7.80;94.40;;;;;;5008532;28;20539;-46
2023/11/26 08:31:47;;;;;;;4.60;2.50;;;7.80;94.40;;;;;;5007873;28;20205;-47
2023/11/26 08:34:16;;;;;;;7.03;4.20;;;7.90;95.00;;;;;;5006012;28;20584;-45
2023/11/26 08:36:45;;;;;;;5.28;2.95;;;7.90;94.80;;;;;;5008904;28;20198;-47
2023/11/26 08:39:19;;;;;;;9.88;5.78;;;7.90;94.80;;;;;;5008751;28;20603;-46
2023/11/26 08:41:50;;;;;;;11.45;5.22;;;7.90;95.10;;;;;;5004426;28;20202;-47
2023/11/26 08:44:18;;;;;;;7.70;4.82;;;7.90;95.00;;;;;;5012908;28;20229;-45
2023/11/26 08:46:47;;;;;;;8.82;4.68;;;7.90;94.80;;;;;;5013451;28;20202;-47
2023/11/26 08:49:20;;;;;;;4.78;3.67;;;7.90;95.00;;;;;;5013478;28;20228;-46
2023/11/26 08:51:48;;;;;;;6.65;4.28;;;7.90;94.80;;;;;;5025569;28;20210;-43
2023/11/26 08:54:17;;;;;;;5.05;3.97;;;7.90;94.80;;;;;;5013785;28;20213;-44
2023/11/26 08:56:45;;;;;;;5.78;4.00;;;7.80;94.80;;;;;;5004149;28;20194;-46
2023/11/26 08:59:15;;;;;;;9.85;5.63;;;7.90;94.80;;;;;;5013465;28;20962;-44
2023/11/26 09:01:45;;;;;;;6.00;3.67;;;7.80;94.90;;;;;;5013221;28;20229;-44
2023/11/26 09:04:13;;;;;;;8.50;4.70;;;7.80;94.80;;;;;;5013626;28;20252;-44
2023/11/26 09:06:41;;;;;;;7.60;4.00;;;7.80;94.80;;;;;;5017392;28;20508;-44
2023/11/26 09:09:10;;;;;;;4.55;3.97;;;7.80;94.80;;;;;;5013396;28;20308;-45
2023/11/26 09:11:38;;;;;;;4.40;3.17;;;7.80;94.80;;;;;;5003757;28;20199;-45
2023/11/26 09:14:06;;;;;;;4.95;4.28;;;7.80;94.70;;;;;;5015709;28;20699;-45
2023/11/26 09:16:36;;;;;;;4.28;3.20;;;7.80;94.70;;;;;;5019259;28;20226;-44
2023/11/26 09:19:04;;;;;;;3.90;3.22;;;7.80;94.70;;;;;;5004412;28;20219;-45
2023/11/26 09:21:33;;;;;;;6.38;3.85;;;7.80;94.70;;;;;;5015553;28;20191;-44
2023/11/26 09:24:01;;;;;;;4.95;3.50;;;7.80;94.70;;;;;;5012677;28;20223;-45
2023/11/26 09:26:29;;;;;;;3.47;3.03;;;7.80;95.20;;;;;;5003887;28;20192;-46
2023/11/26 09:28:57;;;;;;;7.25;4.25;;;7.80;94.70;;;;;;5011894;28;20654;-44
2023/11/26 09:31:27;;;;;;;6.93;3.60;;;7.80;94.70;;;;;;5012908;28;20260;-44
2023/11/26 09:33:56;;;;;;;6.70;3.90;;;7.90;94.80;;;;;;5019800;28;20217;-43
2023/11/26 09:36:25;;;;;;;4.07;3.60;;;7.80;94.80;;;;;;5011396;28;20308;-44
2023/11/26 09:38:53;;;;;;;5.60;3.92;;;7.80;94.80;;;;;;5012791;28;20605;-43
2023/11/26 09:41:22;;;;;;;5.05;3.60;;;7.80;94.70;;;;;;5010699;28;20198;-44
2023/11/26 09:43:50;;;;;;;4.10;3.45;;;7.80;94.80;;;;;;5011664;28;20221;-46
2023/11/26 09:46:20;;;;;;;6.65;3.72;;;7.80;94.80;;;;;;5013790;28;20221;-46
2023/11/26 09:48:49;;;;;;;6.03;4.65;;;7.80;94.90;;;;;;5010878;28;20300;-45
2023/11/26 09:51:24;;;;;;;6.05;3.85;;;7.80;94.80;;;;;;5011419;28;20407;-44
2023/11/26 09:53:52;;;;;;;3.95;3.30;;;7.80;94.80;;;;;;5012608;28;20214;-44
2023/11/26 09:56:20;;;;;;;4.50;3.45;;;7.80;94.80;;;;;;5006044;28;20271;-43
2023/11/26 09:58:48;;;;;;;6.07;3.45;;;7.80;94.80;;;;;;5014375;28;20302;-45
2023/11/26 10:01:16;;;;;;;5.13;3.70;;;7.80;94.80;;;;;;5018589;28;20407;-44
2023/11/26 10:03:58;;;;;;;4.20;3.42;;;7.80;94.80;;;;;;5007164;28;20708;-43
2023/11/26 10:06:29;;;;;;;5.50;3.60;;;7.80;94.80;;;;;;5006020;28;20292;-47
2023/11/26 10:08:59;;;;;;;3.65;3.17;;;7.90;94.80;;;;;;5012265;28;20210;-44
2023/11/26 10:11:28;;;;;;;4.65;3.53;;;7.90;94.80;;;;;;5001125;28;20662;-46
2023/11/26 10:13:56;;;;;;;4.20;2.97;;;7.80;94.70;;;;;;5012772;28;20730;-44
2023/11/26 10:16:28;;;;;;;5.35;3.67;;;7.90;94.70;;;;;;5012763;28;20199;-45
2023/11/26 10:18:56;;;;;;;3.40;2.58;;;7.90;94.70;;;;;;5009020;28;20305;-46
2023/11/26 10:21:25;;;;;;;8.80;3.15;;;7.80;94.60;;;;;;5012239;28;20543;-46
2023/11/26 10:23:55;;;;;;;5.97;3.47;;;7.90;94.80;;;;;;5011374;28;20233;-45
2023/11/26 10:26:26;;;;;;;4.18;3.00;;;7.90;94.70;;;;;;5002402;28;20194;-45
2023/11/26 10:29:08;;;;;;;4.20;3.15;;;7.90;94.70;;;;;;5016679;28;20596;-48
2023/11/26 10:31:36;;;;;;;3.53;2.72;;;7.90;94.70;;;;;;5013498;28;20217;-44
2023/11/26 10:34:16;;;;;;;3.83;2.88;;;7.90;94.70;;;;;;5008687;28;20219;-44
2023/11/26 10:36:44;;;;;;;5.10;3.25;;;7.90;94.70;;;;;;5010501;28;20202;-44
2023/11/26 10:39:14;;;;;;;2.85;2.53;;;7.90;94.80;;;;;;5016593;28;20295;-44
2023/11/26 10:41:46;;;;;;;4.43;3.47;;;7.90;94.70;;;;;;5002952;28;20202;-43
2023/11/26 10:44:15;;;;;;;3.75;3.38;;;7.90;94.60;;;;;;5012468;28;20233;-43
2023/11/26 10:46:46;;;;;;;4.47;3.30;;;7.90;94.60;;;;;;5012486;28;20205;-44
2023/11/26 10:49:16;;;;;;;3.55;3.25;;;7.90;94.60;;;;;;5012290;28;20632;-46
2023/11/26 10:51:49;;;;;;;4.03;2.80;;;7.90;94.60;;;;;;5005563;28;20685;-46
2023/11/26 10:54:27;;;;;;;3.53;3.22;;;7.90;94.60;;;;;;5012360;28;20217;-46
2023/11/26 10:57:01;;;;;;;3.25;2.85;;;7.90;94.60;;;;;;5002489;28;20249;-46
2023/11/26 10:59:34;;;;;;;5.47;3.45;;;7.90;94.60;;;;;;5005423;28;20218;-44
2023/11/26 11:02:03;;;;;;;3.75;3.08;;;7.90;94.60;;;;;;5010931;28;20672;-43
2023/11/26 11:04:36;;;;;;;4.47;3.58;;;7.90;94.60;;;;;;5008802;28;20235;-44
2023/11/26 11:07:05;;;;;;;3.30;2.70;;;7.90;94.60;;;;;;5012693;28;20650;-44
2023/11/26 11:09:44;;;;;;;5.20;2.78;;;7.90;94.60;;;;;;5010542;28;20206;-44
2023/11/26 11:12:17;;;;;;;2.80;2.50;;;7.90;94.60;;;;;;5003492;28;20198;-44
2023/11/26 11:14:45;;;;;;;4.65;2.97;;;7.90;94.50;;;;;;5010863;28;20240;-44
2023/11/26 11:17:28;;;;;;;5.60;3.65;;;7.90;94.60;;;;;;5012483;28;20268;-44
2023/11/26 11:19:56;;;;;;;3.75;3.42;;;7.90;94.60;;;;;;5003999;28;20219;-43
2023/11/26 11:22:36;;;;;;;7.72;3.63;;;7.90;94.90;;;;;;5025164;28;20684;-46
2023/11/26 11:25:10;;;;;;;4.65;2.90;;;7.90;94.90;;;;;;5008997;28;20234;-44
2023/11/26 11:27:53;;;;;;;3.83;3.17;;;7.90;94.70;;;;;;5010522;28;20217;-44
2023/11/26 11:30:55;;;;;;;2.63;2.30;;;7.90;94.80;;;;;;5015290;28;20584;-44
2023/11/26 11:33:24;;;;;;;2.80;2.35;;;7.90;94.60;;;;;;5010700;28;20501;-44
2023/11/26 11:35:52;;;;;;;4.30;3.30;;;7.90;94.60;;;;;;5002884;28;20390;-44
2023/11/26 11:38:20;;;;;;;3.58;3.20;;;7.90;94.70;;;;;;5010699;28;20231;-44
2023/11/26 11:41:13;;;;;;;4.80;3.28;;;7.90;94.70;;;;;;5008977;28;20228;-45
2023/11/26 11:43:42;;;;;;;2.85;2.30;;;7.90;94.80;;;;;;5011429;28;20222;-43
2023/11/26 11:46:52;;;;;;;2.80;2.30;;;7.90;95.20;;;;;;5012318;28;20214;-44
2023/11/26 11:49:21;;;;;;;3.50;2.90;;;7.90;94.60;;;;;;5001688;28;20593;-48
2023/11/26 11:51:49;;;;;;;3.30;2.70;;;7.90;94.80;;;;;;5007307;28;20247;-48
2023/11/26 11:54:46;;;;;;;5.63;2.70;;;7.90;94.70;;;;;;5012301;28;20223;-45
2023/11/26 11:57:16;;;;;;;4.10;2.70;;;7.90;94.80;;;;;;5007449;28;20659;-44
2023/11/26 11:59:45;;;;;;;4.75;2.20;;;7.90;94.70;;;;;;5011164;28;20226;-44
2023/11/26 12:02:14;;;;;;;4.35;3.22;;;7.90;94.70;;;;;;5012148;28;20198;-44
2023/11/26 12:04:44;;;;;;;5.07;2.40;;;7.90;94.70;;;;;;5011335;28;20272;-45
2023/11/26 12:07:12;;;;;;;4.03;2.40;;;7.90;94.60;;;;;;5011569;28;20252;-44
2023/11/26 12:09:41;;;;;;;3.08;2.42;;;7.90;94.70;;;;;;5011014;28;20794;-49
2023/11/26 12:12:10;;;;;;;3.85;2.55;;;7.90;94.70;;;;;;5008446;28;20197;-44
2023/11/26 12:14:39;;;;;;;3.97;2.67;;;7.90;94.70;;;;;;5013621;28;20225;-45
2023/11/26 12:17:08;;;;;;;2.83;2.53;;;7.90;94.70;;;;;;5016017;28;20253;-44
2023/11/26 12:19:38;;;;;;;2.88;2.40;;;7.90;94.70;;;;;;5017478;28;20227;-45
2023/11/26 12:22:07;;;;;;;4.05;3.00;;;7.90;94.70;;;;;;5016114;28;20215;-46
2023/11/26 12:24:36;;;;;;;2.67;2.47;;;7.90;94.60;;;;;;5014089;28;20237;-47
2023/11/26 12:27:04;;;;;;;2.97;2.20;;;7.90;94.60;;;;;;5011409;28;20240;-44
2023/11/26 12:29:34;;;;;;;3.50;2.45;;;7.90;94.60;;;;;;5013713;28;20798;-44
2023/11/26 12:32:07;;;;;;;6.00;2.58;;;7.90;94.60;;;;;;5023254;28;20243;-45
2023/11/26 12:34:38;;;;;;;5.45;2.90;;;7.90;94.60;;;;;;5008189;28;20319;-45
2023/11/26 12:37:09;;;;;;;3.67;2.80;;;7.90;94.60;;;;;;5011936;28;20234;-45
2023/11/26 12:39:39;;;;;;;4.35;2.80;;;7.90;94.60;;;;;;5013422;28;20631;-45
2023/11/26 12:42:07;;;;;;;5.95;3.40;;;7.90;94.70;;;;;;5019173;28;20256;-46
2023/11/26 12:44:36;;;;;;;5.10;2.88;;;7.90;94.70;;;;;;5014458;28;20225;-45
2023/11/26 12:47:09;;;;;;;4.07;2.17;;;7.90;94.60;;;;;;5016339;28;20721;-45
2023/11/26 12:49:38;;;;;;;4.47;3.42;;;7.90;94.60;;;;;;5011618;28;20245;-46
2023/11/26 12:52:08;;;;;;;2.90;2.05;;;7.90;94.60;;;;;;5014540;28;20194;-44
2023/11/26 12:54:37;;;;;;;3.97;2.67;;;7.90;94.60;;;;;;5013525;28;20288;-45
2023/11/26 12:57:06;;;;;;;2.83;2.47;;;7.90;94.80;;;;;;5012617;28;20503;-45
2023/11/26 12:59:46;;;;;;;3.53;2.90;;;7.90;94.70;;;;;;5014277;28;20726;-44
2023/11/26 13:02:17;;;;;;;2.97;2.67;;;7.90;94.70;;;;;;5014188;28;20237;-43
2023/11/26 13:04:46;;;;;;;4.93;2.20;;;7.90;94.80;;;;;;5011791;28;20264;-45
2023/11/26 13:07:16;;;;;;;2.80;2.50;;;7.90;94.70;;;;;;5015029;28;20231;-45
2023/11/26 13:09:48;;;;;;;4.25;2.42;;;7.90;94.80;;;;;;5015831;28;20779;-45
2023/11/26 13:12:16;;;;;;;3.70;2.25;;;7.90;94.80;;;;;;5012262;28;20196;-44
2023/11/26 13:14:45;;;;;;;7.57;2.80;;;7.90;94.70;;;;;;5014772;28;20227;-45